Cotes De La Manche — FQBE — position and weather

sailwx.info

Track history (hours):
 
Tides and Currents Weather Stations Pressure Air Temp Water Temp Dewpoint Dewpoint Depression Visibility Wind Speed Wind Dir Waves Ship Positions

Cotes De La Manche

Last reported at 2017-May-27 09:14 UTC. Time now 2017-May-27 13:32 UTC.
Position N 43°30' W 001°29'.

Length 25 m; draft 3.7 m.

Type: . MMSI: 227091000.

Date/timePositionNaut miles runAvg speedWind from/ knotsBaromVisibWave heightAir tempDewpointWater temp
2017-May-27 09:14N 43°30' W 001°29'0 0.0
2017-May-27 08:57N 43°30' W 001°29'0 0.0
2017-May-27 08:30N 43°30' W 001°29'0 0.0
2017-May-27 07:48N 43°30' W 001°29'0 0.0
2017-May-27 07:29N 43°30' W 001°29'0 0.0
2017-May-27 06:59N 43°30' W 001°29'0 0.0
2017-May-27 06:30N 43°30' W 001°29'0 0.0
2017-May-27 05:58N 43°30' W 001°29'0 0.0
2017-May-27 05:28N 43°30' W 001°29'0 0.0
2017-May-27 00:11N 43°30' W 001°29'0 0.0
2017-May-26 21:13N 43°30' W 001°29'0 0.0
2017-May-26 20:56N 43°30' W 001°29'0 0.0
2017-May-26 20:30N 43°30' W 001°29'0 0.0
2017-May-26 18:13N 43°30' W 001°29'2 1.4
2017-May-26 16:37N 43°32' W 001°31'0 0.0
2017-May-26 16:04N 43°32' W 001°31'0 0.0
2017-May-26 16:00N 43°32' W 001°31'0 0.0
2017-May-26 15:30N 43°32' W 001°31'0 0.0
2017-May-26 00:39N 43°32' W 001°31'2 0.1
2017-May-25 08:36N 43°32' W 001°33'0 1.0
2017-May-25 08:21N 43°32' W 001°33'3 6.9
2017-May-25 07:53N 43°34' W 001°37'52 7.4
2017-May-25 00:48N 44°26' W 001°34'3 8.6
2017-May-25 00:29N 44°29' W 001°34'4 8.5
2017-May-25 00:00N 44°33' W 001°33'5 8.5
2017-May-24 23:25N 44°38' W 001°32'4 8.5
2017-May-24 22:54N 44°42' W 001°31'4 8.4
2017-May-24 22:26N 44°46' W 001°30'72 9.3
2017-May-24 14:38N 45°58' W 001°29'110.3
2017-May-24 14:30N 45°60' W 001°29'8 8.5
2017-May-24 13:30N 46°06' W 001°20'4 8.6
2017-May-24 13:00N 46°08' W 001°15'1 2.8
2017-May-24 12:30N 46°09' W 001°13'0 0.0
2017-May-24 12:00N 46°09' W 001°13'0 0.0
2017-May-24 11:30N 46°09' W 001°13'0 0.0
2017-May-24 11:00N 46°09' W 001°13'0 0.0
2017-May-24 10:30N 46°09' W 001°13'0 0.0
2017-May-24 10:00N 46°09' W 001°13'0 0.0
2017-May-24 09:30N 46°09' W 001°13'0 0.0
2017-May-24 09:00N 46°09' W 001°13'0 0.0
2017-May-24 08:30N 46°09' W 001°13'0 0.0
2017-May-24 08:00N 46°09' W 001°13'0 0.0
2017-May-24 07:29N 46°09' W 001°13'0 0.0
2017-May-24 06:58N 46°09' W 001°13'0 0.0
2017-May-24 06:30N 46°09' W 001°13'0 0.0
2017-May-24 06:00N 46°09' W 001°13'4 7.5
2017-May-24 05:30N 46°06' W 001°15'510.4
2017-May-24 05:00N 46°01' W 001°12'1 1.9
2017-May-24 04:30N 46°00' W 001°11'0 0.0
2017-May-24 04:00N 46°00' W 001°11'0 0.1
2017-May-24 03:29N 46°00' W 001°11'0 0.0
2017-May-24 03:00N 46°00' W 001°11'0 0.0
2017-May-24 02:25N 46°00' W 001°11'0 0.0
2017-May-24 02:00N 46°00' W 001°11'0 0.0
2017-May-24 01:30N 46°00' W 001°11'0 0.0
2017-May-24 01:00N 46°00' W 001°11'0 0.0
2017-May-24 00:30N 46°00' W 001°11'0 0.0
2017-May-24 00:00N 46°00' W 001°11'0 0.0
2017-May-23 23:30N 46°00' W 001°11'0 0.0
2017-May-23 23:00N 46°00' W 001°11'0 0.0
2017-May-23 22:30N 46°00' W 001°11'0 0.0
2017-May-23 22:00N 46°00' W 001°11'0 0.0
2017-May-23 21:24N 46°00' W 001°11'0 0.1
2017-May-23 21:00N 46°00' W 001°11'0 0.0
2017-May-23 20:30N 46°00' W 001°11'0 0.1
2017-May-23 20:00N 46°00' W 001°11'0 0.1
2017-May-23 19:30N 46°00' W 001°11'0 0.0
2017-May-23 19:00N 46°00' W 001°11'0 0.1
2017-May-23 18:30N 46°00' W 001°11'0 0.0
2017-May-23 18:00N 46°00' W 001°11'0 0.0
2017-May-23 17:31N 46°00' W 001°11'3 6.1
2017-May-23 17:00N 46°02' W 001°15'5 8.7
2017-May-23 16:29N 46°04' W 001°20'4 7.5
2017-May-23 16:00N 46°04' W 001°25'28 3.0
2017-May-23 06:36N 45°37' W 001°21'512.5
2017-May-23 06:11N 45°39' W 001°15'312.6
2017-May-23 05:56N 45°39' W 001°10'613.1
2017-May-23 05:31N 45°36' W 001°04'2 4.1
2017-May-23 05:00N 45°34' W 001°03'0 0.0
2017-May-23 04:30N 45°34' W 001°03'0 0.0
2017-May-23 04:00N 45°34' W 001°03'0 0.0
2017-May-23 03:30N 45°34' W 001°03'27 0.6
2017-May-21 06:04N 45°52' W 001°31'1 9.7
2017-May-21 05:59N 45°52' W 001°31'5 9.8
2017-May-21 05:29N 45°57' W 001°29'5 9.9
2017-May-21 05:00N 46°02' W 001°27'4 8.8
2017-May-21 04:30N 46°05' W 001°23'4 8.6
2017-May-21 04:00N 46°03' W 001°17'0 0.0
2017-May-21 03:30N 46°03' W 001°17'0 0.0
2017-May-21 03:00N 46°03' W 001°17'0 0.0
2017-May-21 02:30N 46°03' W 001°17'0 0.0
2017-May-21 02:00N 46°03' W 001°17'0 0.0
2017-May-21 01:30N 46°03' W 001°17'0 0.0
2017-May-21 01:00N 46°03' W 001°17'0 0.0
2017-May-20 19:11N 46°03' W 001°17'0 0.0
2017-May-20 18:59N 46°03' W 001°17'0 0.0
2017-May-20 18:30N 46°03' W 001°17'0 0.0
2017-May-20 17:46N 46°03' W 001°17'0 0.0
2017-May-20 17:20N 46°03' W 001°17'0 0.0
2017-May-20 17:00N 46°03' W 001°17'0 0.1
2017-May-20 16:30N 46°03' W 001°17'510.0
2017-May-20 16:00N 46°08' W 001°15'1 2.9
2017-May-20 15:30N 46°09' W 001°13'0 0.0
2017-May-20 15:00N 46°09' W 001°13'0 0.0
2017-May-20 14:30N 46°09' W 001°13'0 0.0
2017-May-20 13:30N 46°09' W 001°13'0 0.0
2017-May-20 13:00N 46°09' W 001°13'0 0.0
2017-May-20 12:30N 46°09' W 001°13'0 0.0
2017-May-20 12:00N 46°09' W 001°13'0 0.0
2017-May-20 11:30N 46°09' W 001°13'0 0.3
2017-May-20 11:00N 46°09' W 001°14'4 8.1
2017-May-20 10:30N 46°06' W 001°18'34 4.4
2017-May-20 02:40N 45°33' W 001°03'0 0.0
2017-May-20 02:25N 45°33' W 001°03'0 0.0
2017-May-20 01:55N 45°33' W 001°03'0 0.0
2017-May-20 01:25N 45°33' W 001°03'0 0.0
2017-May-20 00:55N 45°33' W 001°03'0 0.0
2017-May-20 00:28N 45°33' W 001°03'0 0.0
2017-May-19 23:55N 45°33' W 001°03'0 0.0
2017-May-19 23:28N 45°33' W 001°03'0 0.0
2017-May-19 22:55N 45°33' W 001°03'0 0.0
2017-May-19 22:25N 45°33' W 001°03'0 0.0
2017-May-19 21:58N 45°33' W 001°03'0 0.0
2017-May-19 21:22N 45°33' W 001°03'0 0.0
2017-May-19 20:58N 45°33' W 001°03'0 0.0
2017-May-19 20:19N 45°33' W 001°03'0 0.0
2017-May-19 19:55N 45°33' W 001°03'0 0.1
2017-May-19 19:28N 45°33' W 001°03'0 0.0
2017-May-19 18:58N 45°33' W 001°03'0 0.0
2017-May-19 18:25N 45°33' W 001°03'0 0.0
2017-May-19 17:58N 45°33' W 001°03'0 0.0
2017-May-19 17:28N 45°33' W 001°03'0 0.1
2017-May-19 16:49N 45°33' W 001°03'3 9.9
2017-May-19 16:30N 45°31' W 000°60'5 0.1
2017-May-17 21:19N 45°28' W 000°55'3 9.5
2017-May-17 21:00N 45°30' W 000°56'  
Track history (hours):
 
Tides and Currents Weather Stations Pressure Air Temp Water Temp Dewpoint Dewpoint Depression Visibility Wind Speed Wind Dir Waves Ship Positions

Cotes De La Manche

Last reported at 2017-May-27 09:14 UTC. Time now 2017-May-27 13:32 UTC.
Position N 43°30' W 001°29'.

Length 25 m; draft 3.7 m.

Type: . MMSI: 227091000.

Date/timePositionNaut miles runAvg speedWind from/ knotsBaromVisibWave heightAir tempDewpointWater temp
2017-May-27 09:14N 43°30' W 001°29'0 0.0
2017-May-27 08:57N 43°30' W 001°29'0 0.0
2017-May-27 08:30N 43°30' W 001°29'0 0.0
2017-May-27 07:48N 43°30' W 001°29'0 0.0
2017-May-27 07:29N 43°30' W 001°29'0 0.0
2017-May-27 06:59N 43°30' W 001°29'0 0.0
2017-May-27 06:30N 43°30' W 001°29'0 0.0
2017-May-27 05:58N 43°30' W 001°29'0 0.0
2017-May-27 05:28N 43°30' W 001°29'0 0.0
2017-May-27 00:11N 43°30' W 001°29'0 0.0
2017-May-26 21:13N 43°30' W 001°29'0 0.0
2017-May-26 20:56N 43°30' W 001°29'0 0.0
2017-May-26 20:30N 43°30' W 001°29'0 0.0
2017-May-26 18:13N 43°30' W 001°29'2 1.4
2017-May-26 16:37N 43°32' W 001°31'0 0.0
2017-May-26 16:04N 43°32' W 001°31'0 0.0
2017-May-26 16:00N 43°32' W 001°31'0 0.0
2017-May-26 15:30N 43°32' W 001°31'0 0.0
2017-May-26 00:39N 43°32' W 001°31'2 0.1
2017-May-25 08:36N 43°32' W 001°33'0 1.0
2017-May-25 08:21N 43°32' W 001°33'3 6.9
2017-May-25 07:53N 43°34' W 001°37'52 7.4
2017-May-25 00:48N 44°26' W 001°34'3 8.6
2017-May-25 00:29N 44°29' W 001°34'4 8.5
2017-May-25 00:00N 44°33' W 001°33'5 8.5
2017-May-24 23:25N 44°38' W 001°32'4 8.5
2017-May-24 22:54N 44°42' W 001°31'4 8.4
2017-May-24 22:26N 44°46' W 001°30'72 9.3
2017-May-24 14:38N 45°58' W 001°29'110.3
2017-May-24 14:30N 45°60' W 001°29'8 8.5
2017-May-24 13:30N 46°06' W 001°20'4 8.6
2017-May-24 13:00N 46°08' W 001°15'1 2.8
2017-May-24 12:30N 46°09' W 001°13'0 0.0
2017-May-24 12:00N 46°09' W 001°13'0 0.0
2017-May-24 11:30N 46°09' W 001°13'0 0.0
2017-May-24 11:00N 46°09' W 001°13'0 0.0
2017-May-24 10:30N 46°09' W 001°13'0 0.0
2017-May-24 10:00N 46°09' W 001°13'0 0.0
2017-May-24 09:30N 46°09' W 001°13'0 0.0
2017-May-24 09:00N 46°09' W 001°13'0 0.0
2017-May-24 08:30N 46°09' W 001°13'0 0.0
2017-May-24 08:00N 46°09' W 001°13'0 0.0
2017-May-24 07:29N 46°09' W 001°13'0 0.0
2017-May-24 06:58N 46°09' W 001°13'0 0.0
2017-May-24 06:30N 46°09' W 001°13'0 0.0
2017-May-24 06:00N 46°09' W 001°13'4 7.5
2017-May-24 05:30N 46°06' W 001°15'510.4
2017-May-24 05:00N 46°01' W 001°12'1 1.9
2017-May-24 04:30N 46°00' W 001°11'0 0.0
2017-May-24 04:00N 46°00' W 001°11'0 0.1
2017-May-24 03:29N 46°00' W 001°11'0 0.0
2017-May-24 03:00N 46°00' W 001°11'0 0.0
2017-May-24 02:25N 46°00' W 001°11'0 0.0
2017-May-24 02:00N 46°00' W 001°11'0 0.0
2017-May-24 01:30N 46°00' W 001°11'0 0.0
2017-May-24 01:00N 46°00' W 001°11'0 0.0
2017-May-24 00:30N 46°00' W 001°11'0 0.0
2017-May-24 00:00N 46°00' W 001°11'0 0.0
2017-May-23 23:30N 46°00' W 001°11'0 0.0
2017-May-23 23:00N 46°00' W 001°11'0 0.0
2017-May-23 22:30N 46°00' W 001°11'0 0.0
2017-May-23 22:00N 46°00' W 001°11'0 0.0
2017-May-23 21:24N 46°00' W 001°11'0 0.1
2017-May-23 21:00N 46°00' W 001°11'0 0.0
2017-May-23 20:30N 46°00' W 001°11'0 0.1
2017-May-23 20:00N 46°00' W 001°11'0 0.1
2017-May-23 19:30N 46°00' W 001°11'0 0.0
2017-May-23 19:00N 46°00' W 001°11'0 0.1
2017-May-23 18:30N 46°00' W 001°11'0 0.0
2017-May-23 18:00N 46°00' W 001°11'0 0.0
2017-May-23 17:31N 46°00' W 001°11'3 6.1
2017-May-23 17:00N 46°02' W 001°15'5 8.7
2017-May-23 16:29N 46°04' W 001°20'4 7.5
2017-May-23 16:00N 46°04' W 001°25'28 3.0
2017-May-23 06:36N 45°37' W 001°21'512.5
2017-May-23 06:11N 45°39' W 001°15'312.6
2017-May-23 05:56N 45°39' W 001°10'613.1
2017-May-23 05:31N 45°36' W 001°04'2 4.1
2017-May-23 05:00N 45°34' W 001°03'0 0.0
2017-May-23 04:30N 45°34' W 001°03'0 0.0
2017-May-23 04:00N 45°34' W 001°03'0 0.0
2017-May-23 03:30N 45°34' W 001°03'27 0.6
2017-May-21 06:04N 45°52' W 001°31'1 9.7
2017-May-21 05:59N 45°52' W 001°31'5 9.8
2017-May-21 05:29N 45°57' W 001°29'5 9.9
2017-May-21 05:00N 46°02' W 001°27'4 8.8
2017-May-21 04:30N 46°05' W 001°23'4 8.6
2017-May-21 04:00N 46°03' W 001°17'0 0.0
2017-May-21 03:30N 46°03' W 001°17'0 0.0
2017-May-21 03:00N 46°03' W 001°17'0 0.0
2017-May-21 02:30N 46°03' W 001°17'0 0.0
2017-May-21 02:00N 46°03' W 001°17'0 0.0
2017-May-21 01:30N 46°03' W 001°17'0 0.0
2017-May-21 01:00N 46°03' W 001°17'0 0.0
2017-May-20 19:11N 46°03' W 001°17'0 0.0
2017-May-20 18:59N 46°03' W 001°17'0 0.0
2017-May-20 18:30N 46°03' W 001°17'0 0.0
2017-May-20 17:46N 46°03' W 001°17'0 0.0
2017-May-20 17:20N 46°03' W 001°17'0 0.0
2017-May-20 17:00N 46°03' W 001°17'0 0.1
2017-May-20 16:30N 46°03' W 001°17'510.0
2017-May-20 16:00N 46°08' W 001°15'1 2.9
2017-May-20 15:30N 46°09' W 001°13'0 0.0
2017-May-20 15:00N 46°09' W 001°13'0 0.0
2017-May-20 14:30N 46°09' W 001°13'0 0.0
2017-May-20 13:30N 46°09' W 001°13'0 0.0
2017-May-20 13:00N 46°09' W 001°13'0 0.0
2017-May-20 12:30N 46°09' W 001°13'0 0.0
2017-May-20 12:00N 46°09' W 001°13'0 0.0
2017-May-20 11:30N 46°09' W 001°13'0 0.3
2017-May-20 11:00N 46°09' W 001°14'4 8.1
2017-May-20 10:30N 46°06' W 001°18'34 4.4
2017-May-20 02:40N 45°33' W 001°03'0 0.0
2017-May-20 02:25N 45°33' W 001°03'0 0.0
2017-May-20 01:55N 45°33' W 001°03'0 0.0
2017-May-20 01:25N 45°33' W 001°03'0 0.0
2017-May-20 00:55N 45°33' W 001°03'0 0.0
2017-May-20 00:28N 45°33' W 001°03'0 0.0
2017-May-19 23:55N 45°33' W 001°03'0 0.0
2017-May-19 23:28N 45°33' W 001°03'0 0.0
2017-May-19 22:55N 45°33' W 001°03'0 0.0
2017-May-19 22:25N 45°33' W 001°03'0 0.0
2017-May-19 21:58N 45°33' W 001°03'0 0.0
2017-May-19 21:22N 45°33' W 001°03'0 0.0
2017-May-19 20:58N 45°33' W 001°03'0 0.0
2017-May-19 20:19N 45°33' W 001°03'0 0.0
2017-May-19 19:55N 45°33' W 001°03'0 0.1
2017-May-19 19:28N 45°33' W 001°03'0 0.0
2017-May-19 18:58N 45°33' W 001°03'0 0.0
2017-May-19 18:25N 45°33' W 001°03'0 0.0
2017-May-19 17:58N 45°33' W 001°03'0 0.0
2017-May-19 17:28N 45°33' W 001°03'0 0.1
2017-May-19 16:49N 45°33' W 001°03'3 9.9
2017-May-19 16:30N 45°31' W 000°60'5 0.1
2017-May-17 21:19N 45°28' W 000°55'3 9.5
2017-May-17 21:00N 45°30' W 000°56'  

Dump ship's entire track history